sensor_id;sensor_type;location;lat;lon;timestamp;P1;durP1;ratioP1;P2;durP2;ratioP2
20443;SDS011;10381;53.730;10.010;2023-12-29T00:03:34;17.30;;;13.17;;
20443;SDS011;10381;53.730;10.010;2023-12-29T00:07:35;13.55;;;10.95;;
20443;SDS011;10381;53.730;10.010;2023-12-29T00:11:35;19.90;;;13.98;;
20443;SDS011;10381;53.730;10.010;2023-12-29T00:15:36;27.77;;;15.75;;
20443;SDS011;10381;53.730;10.010;2023-12-29T00:19:36;25.53;;;18.37;;
20443;SDS011;10381;53.730;10.010;2023-12-29T00:23:36;20.50;;;18.43;;
20443;SDS011;10381;53.730;10.010;2023-12-29T00:27:36;20.93;;;18.00;;
20443;SDS011;10381;53.730;10.010;2023-12-29T00:31:37;18.43;;;16.73;;
20443;SDS011;10381;53.730;10.010;2023-12-29T00:35:37;30.80;;;19.13;;
20443;SDS011;10381;53.730;10.010;2023-12-29T00:39:38;27.80;;;21.17;;
20443;SDS011;10381;53.730;10.010;2023-12-29T00:43:40;24.05;;;20.10;;
20443;SDS011;10381;53.730;10.010;2023-12-29T00:47:40;21.23;;;19.33;;
20443;SDS011;10381;53.730;10.010;2023-12-29T00:51:40;23.60;;;21.27;;
20443;SDS011;10381;53.730;10.010;2023-12-29T00:55:43;25.17;;;22.48;;
20443;SDS011;10381;53.730;10.010;2023-12-29T00:59:43;23.50;;;21.20;;
20443;SDS011;10381;53.730;10.010;2023-12-29T01:03:46;26.35;;;21.30;;
20443;SDS011;10381;53.730;10.010;2023-12-29T01:07:46;26.30;;;22.40;;
20443;SDS011;10381;53.730;10.010;2023-12-29T01:11:47;25.95;;;23.17;;
20443;SDS011;10381;53.730;10.010;2023-12-29T01:15:47;31.67;;;23.80;;
20443;SDS011;10381;53.730;10.010;2023-12-29T01:19:47;30.17;;;23.53;;
20443;SDS011;10381;53.730;10.010;2023-12-29T01:23:47;23.87;;;21.57;;
20443;SDS011;10381;53.730;10.010;2023-12-29T01:27:48;31.10;;;20.80;;
20443;SDS011;10381;53.730;10.010;2023-12-29T01:31:48;26.10;;;22.07;;
20443;SDS011;10381;53.730;10.010;2023-12-29T01:35:48;26.13;;;23.33;;
20443;SDS011;10381;53.730;10.010;2023-12-29T01:39:49;30.95;;;24.65;;
20443;SDS011;10381;53.730;10.010;2023-12-29T01:48:01;29.50;;;23.40;;
20443;SDS011;10381;53.730;10.010;2023-12-29T01:52:02;31.02;;;22.55;;
20443;SDS011;10381;53.730;10.010;2023-12-29T01:56:03;22.65;;;20.50;;
20443;SDS011;10381;53.730;10.010;2023-12-29T02:00:04;26.33;;;21.60;;
20443;SDS011;10381;53.730;10.010;2023-12-29T02:04:06;25.77;;;22.63;;
20443;SDS011;10381;53.730;10.010;2023-12-29T02:08:07;31.25;;;23.50;;
20443;SDS011;10381;53.730;10.010;2023-12-29T02:12:07;27.03;;;23.93;;
20443;SDS011;10381;53.730;10.010;2023-12-29T02:16:09;31.73;;;23.47;;
20443;SDS011;10381;53.730;10.010;2023-12-29T02:20:18;28.60;;;24.25;;
20443;SDS011;10381;53.730;10.010;2023-12-29T02:24:19;34.13;;;21.42;;
20443;SDS011;10381;53.730;10.010;2023-12-29T02:28:20;26.67;;;22.37;;
20443;SDS011;10381;53.730;10.010;2023-12-29T02:32:24;18.77;;;14.55;;
20443;SDS011;10381;53.730;10.010;2023-12-29T02:36:27;12.75;;;10.38;;
20443;SDS011;10381;53.730;10.010;2023-12-29T02:40:27;11.90;;;6.10;;
20443;SDS011;10381;53.730;10.010;2023-12-29T02:44:27;11.32;;;3.80;;
20443;SDS011;10381;53.730;10.010;2023-12-29T02:48:28;9.30;;;4.50;;
20443;SDS011;10381;53.730;10.010;2023-12-29T02:52:28;11.63;;;4.30;;
20443;SDS011;10381;53.730;10.010;2023-12-29T02:56:28;8.60;;;3.97;;
20443;SDS011;10381;53.730;10.010;2023-12-29T03:00:28;3.87;;;2.97;;
20443;SDS011;10381;53.730;10.010;2023-12-29T03:04:29;7.57;;;5.40;;
20443;SDS011;10381;53.730;10.010;2023-12-29T03:08:29;13.98;;;12.18;;
20443;SDS011;10381;53.730;10.010;2023-12-29T03:12:29;16.70;;;15.30;;
20443;SDS011;10381;53.730;10.010;2023-12-29T03:16:30;14.82;;;13.32;;
20443;SDS011;10381;53.730;10.010;2023-12-29T03:20:30;21.73;;;20.00;;
20443;SDS011;10381;53.730;10.010;2023-12-29T03:24:31;24.23;;;21.83;;
20443;SDS011;10381;53.730;10.010;2023-12-29T03:28:31;20.70;;;17.60;;
20443;SDS011;10381;53.730;10.010;2023-12-29T03:32:31;17.87;;;16.27;;
20443;SDS011;10381;53.730;10.010;2023-12-29T03:36:32;18.23;;;16.13;;
20443;SDS011;10381;53.730;10.010;2023-12-29T03:40:32;15.98;;;14.57;;
20443;SDS011;10381;53.730;10.010;2023-12-29T03:44:32;18.87;;;17.17;;
20443;SDS011;10381;53.730;10.010;2023-12-29T03:48:32;20.27;;;17.60;;
20443;SDS011;10381;53.730;10.010;2023-12-29T03:52:33;30.70;;;16.77;;
20443;SDS011;10381;53.730;10.010;2023-12-29T03:56:33;30.00;;;22.07;;
20443;SDS011;10381;53.730;10.010;2023-12-29T04:00:33;23.77;;;21.47;;
20443;SDS011;10381;53.730;10.010;2023-12-29T04:04:38;28.00;;;25.05;;
20443;SDS011;10381;53.730;10.010;2023-12-29T04:08:38;26.90;;;22.63;;
20443;SDS011;10381;53.730;10.010;2023-12-29T04:12:38;27.17;;;24.77;;
20443;SDS011;10381;53.730;10.010;2023-12-29T04:16:39;23.47;;;21.23;;
20443;SDS011;10381;53.730;10.010;2023-12-29T04:20:39;21.50;;;19.75;;
20443;SDS011;10381;53.730;10.010;2023-12-29T04:24:39;6.40;;;5.90;;
20443;SDS011;10381;53.730;10.010;2023-12-29T04:28:40;6.28;;;4.55;;
20443;SDS011;10381;53.730;10.010;2023-12-29T04:32:40;4.90;;;4.47;;
20443;SDS011;10381;53.730;10.010;2023-12-29T04:36:40;5.53;;;4.27;;
20443;SDS011;10381;53.730;10.010;2023-12-29T04:40:41;4.45;;;4.15;;
20443;SDS011;10381;53.730;10.010;2023-12-29T04:44:41;9.18;;;4.07;;
20443;SDS011;10381;53.730;10.010;2023-12-29T04:48:41;3.97;;;3.67;;
20443;SDS011;10381;53.730;10.010;2023-12-29T04:52:41;4.00;;;3.60;;
20443;SDS011;10381;53.730;10.010;2023-12-29T04:56:42;4.90;;;3.40;;
20443;SDS011;10381;53.730;10.010;2023-12-29T05:00:42;6.05;;;3.20;;
20443;SDS011;10381;53.730;10.010;2023-12-29T05:04:42;2.75;;;2.53;;
20443;SDS011;10381;53.730;10.010;2023-12-29T05:08:42;2.37;;;2.17;;
20443;SDS011;10381;53.730;10.010;2023-12-29T05:12:43;6.17;;;2.43;;
20443;SDS011;10381;53.730;10.010;2023-12-29T05:16:43;3.00;;;2.60;;
20443;SDS011;10381;53.730;10.010;2023-12-29T05:20:44;2.70;;;2.50;;
20443;SDS011;10381;53.730;10.010;2023-12-29T05:24:44;2.30;;;2.10;;
20443;SDS011;10381;53.730;10.010;2023-12-29T05:28:47;2.85;;;2.45;;
20443;SDS011;10381;53.730;10.010;2023-12-29T05:32:47;5.10;;;2.08;;
20443;SDS011;10381;53.730;10.010;2023-12-29T05:36:50;7.75;;;2.50;;
20443;SDS011;10381;53.730;10.010;2023-12-29T05:40:50;3.23;;;2.03;;
20443;SDS011;10381;53.730;10.010;2023-12-29T05:44:51;3.17;;;2.55;;
20443;SDS011;10381;53.730;10.010;2023-12-29T05:48:51;8.27;;;1.90;;
20443;SDS011;10381;53.730;10.010;2023-12-29T05:52:52;4.55;;;2.42;;
20443;SDS011;10381;53.730;10.010;2023-12-29T05:56:52;10.52;;;2.85;;
20443;SDS011;10381;53.730;10.010;2023-12-29T06:00:54;5.13;;;2.20;;
20443;SDS011;10381;53.730;10.010;2023-12-29T06:04:54;2.97;;;2.08;;
20443;SDS011;10381;53.730;10.010;2023-12-29T06:08:55;11.32;;;2.42;;
20443;SDS011;10381;53.730;10.010;2023-12-29T06:12:55;23.77;;;2.53;;
20443;SDS011;10381;53.730;10.010;2023-12-29T06:16:56;6.57;;;2.13;;
20443;SDS011;10381;53.730;10.010;2023-12-29T06:20:56;21.20;;;2.38;;
20443;SDS011;10381;53.730;10.010;2023-12-29T06:24:56;3.40;;;2.50;;
20443;SDS011;10381;53.730;10.010;2023-12-29T06:28:56;7.03;;;2.10;;
20443;SDS011;10381;53.730;10.010;2023-12-29T06:32:57;7.70;;;2.40;;
20443;SDS011;10381;53.730;10.010;2023-12-29T06:36:58;6.20;;;2.28;;
20443;SDS011;10381;53.730;10.010;2023-12-29T06:40:58;5.30;;;2.47;;
20443;SDS011;10381;53.730;10.010;2023-12-29T06:44:58;4.27;;;2.37;;
20443;SDS011;10381;53.730;10.010;2023-12-29T06:48:59;11.95;;;3.15;;
20443;SDS011;10381;53.730;10.010;2023-12-29T06:52:59;19.55;;;2.50;;
20443;SDS011;10381;53.730;10.010;2023-12-29T06:56:59;5.00;;;2.93;;
20443;SDS011;10381;53.730;10.010;2023-12-29T07:01:00;7.63;;;2.83;;
20443;SDS011;10381;53.730;10.010;2023-12-29T07:05:00;7.82;;;2.70;;
20443;SDS011;10381;53.730;10.010;2023-12-29T07:09:01;7.95;;;3.20;;
20443;SDS011;10381;53.730;10.010;2023-12-29T07:13:01;7.57;;;2.85;;
20443;SDS011;10381;53.730;10.010;2023-12-29T07:17:02;5.05;;;2.90;;
20443;SDS011;10381;53.730;10.010;2023-12-29T07:21:03;22.17;;;4.70;;
20443;SDS011;10381;53.730;10.010;2023-12-29T07:25:03;11.98;;;3.28;;
20443;SDS011;10381;53.730;10.010;2023-12-29T07:29:04;4.13;;;3.13;;
20443;SDS011;10381;53.730;10.010;2023-12-29T07:33:05;19.52;;;3.90;;
20443;SDS011;10381;53.730;10.010;2023-12-29T07:37:06;15.77;;;4.05;;
20443;SDS011;10381;53.730;10.010;2023-12-29T07:41:06;20.25;;;3.78;;
20443;SDS011;10381;53.730;10.010;2023-12-29T07:45:06;18.17;;;4.97;;
20443;SDS011;10381;53.730;10.010;2023-12-29T07:49:08;7.85;;;4.28;;
20443;SDS011;10381;53.730;10.010;2023-12-29T07:53:10;12.27;;;4.00;;
20443;SDS011;10381;53.730;10.010;2023-12-29T07:57:15;7.95;;;4.15;;
20443;SDS011;10381;53.730;10.010;2023-12-29T08:01:16;9.27;;;3.97;;
20443;SDS011;10381;53.730;10.010;2023-12-29T08:05:16;14.25;;;4.40;;
20443;SDS011;10381;53.730;10.010;2023-12-29T08:09:16;14.60;;;4.75;;
20443;SDS011;10381;53.730;10.010;2023-12-29T08:13:17;11.87;;;4.13;;
20443;SDS011;10381;53.730;10.010;2023-12-29T08:17:17;9.03;;;4.90;;
20443;SDS011;10381;53.730;10.010;2023-12-29T08:21:18;13.23;;;5.55;;
20443;SDS011;10381;53.730;10.010;2023-12-29T08:25:19;13.52;;;4.30;;
20443;SDS011;10381;53.730;10.010;2023-12-29T08:29:19;14.93;;;4.83;;
20443;SDS011;10381;53.730;10.010;2023-12-29T08:33:20;13.00;;;5.55;;
20443;SDS011;10381;53.730;10.010;2023-12-29T08:37:20;13.03;;;5.07;;
20443;SDS011;10381;53.730;10.010;2023-12-29T08:41:20;19.10;;;5.85;;
20443;SDS011;10381;53.730;10.010;2023-12-29T08:45:21;13.20;;;5.17;;
20443;SDS011;10381;53.730;10.010;2023-12-29T08:49:21;15.67;;;5.70;;
20443;SDS011;10381;53.730;10.010;2023-12-29T08:53:21;9.77;;;5.50;;
20443;SDS011;10381;53.730;10.010;2023-12-29T08:57:22;16.13;;;5.80;;
20443;SDS011;10381;53.730;10.010;2023-12-29T09:01:22;22.30;;;9.00;;
20443;SDS011;10381;53.730;10.010;2023-12-29T09:05:22;8.37;;;5.10;;
20443;SDS011;10381;53.730;10.010;2023-12-29T09:09:22;13.63;;;5.55;;
20443;SDS011;10381;53.730;10.010;2023-12-29T09:13:23;11.07;;;6.57;;
20443;SDS011;10381;53.730;10.010;2023-12-29T09:17:25;22.52;;;8.65;;
20443;SDS011;10381;53.730;10.010;2023-12-29T09:21:25;16.33;;;12.83;;
20443;SDS011;10381;53.730;10.010;2023-12-29T09:25:25;13.03;;;11.77;;
20443;SDS011;10381;53.730;10.010;2023-12-29T09:29:26;16.70;;;11.70;;
20443;SDS011;10381;53.730;10.010;2023-12-29T09:33:27;14.07;;;12.57;;
20443;SDS011;10381;53.730;10.010;2023-12-29T09:37:27;14.85;;;13.48;;
20443;SDS011;10381;53.730;10.010;2023-12-29T09:41:28;19.67;;;16.53;;
20443;SDS011;10381;53.730;10.010;2023-12-29T09:45:31;25.20;;;21.30;;
20443;SDS011;10381;53.730;10.010;2023-12-29T09:49:36;21.08;;;19.27;;
20443;SDS011;10381;53.730;10.010;2023-12-29T09:53:41;23.38;;;17.25;;
20443;SDS011;10381;53.730;10.010;2023-12-29T09:57:41;19.35;;;17.45;;
20443;SDS011;10381;53.730;10.010;2023-12-29T10:01:43;18.42;;;16.90;;
20443;SDS011;10381;53.730;10.010;2023-12-29T10:05:48;18.27;;;16.52;;
20443;SDS011;10381;53.730;10.010;2023-12-29T10:09:53;17.20;;;15.40;;
20443;SDS011;10381;53.730;10.010;2023-12-29T10:13:58;15.95;;;14.65;;
20443;SDS011;10381;53.730;10.010;2023-12-29T10:22:26;21.42;;;13.60;;
20443;SDS011;10381;53.730;10.010;2023-12-29T10:26:34;12.27;;;11.10;;
20443;SDS011;10381;53.730;10.010;2023-12-29T10:30:36;35.05;;;12.40;;
20443;SDS011;10381;53.730;10.010;2023-12-29T10:34:37;25.60;;;11.38;;
20443;SDS011;10381;53.730;10.010;2023-12-29T10:38:38;22.30;;;8.93;;
20443;SDS011;10381;53.730;10.010;2023-12-29T10:42:51;12.00;;;6.55;;
20443;SDS011;10381;53.730;10.010;2023-12-29T10:46:52;14.20;;;6.63;;
20443;SDS011;10381;53.730;10.010;2023-12-29T10:50:52;10.20;;;4.90;;
20443;SDS011;10381;53.730;10.010;2023-12-29T10:55:03;15.77;;;5.87;;
20443;SDS011;10381;53.730;10.010;2023-12-29T10:59:07;17.83;;;4.82;;
20443;SDS011;10381;53.730;10.010;2023-12-29T11:03:10;8.23;;;5.07;;
20443;SDS011;10381;53.730;10.010;2023-12-29T11:07:15;26.15;;;6.32;;
20443;SDS011;10381;53.730;10.010;2023-12-29T11:11:16;14.73;;;6.55;;
20443;SDS011;10381;53.730;10.010;2023-12-29T11:15:17;16.70;;;6.35;;
20443;SDS011;10381;53.730;10.010;2023-12-29T11:19:17;13.77;;;6.13;;
20443;SDS011;10381;53.730;10.010;2023-12-29T11:23:18;12.00;;;5.63;;
20443;SDS011;10381;53.730;10.010;2023-12-29T11:27:19;21.38;;;5.45;;
20443;SDS011;10381;53.730;10.010;2023-12-29T11:31:21;14.93;;;5.25;;
20443;SDS011;10381;53.730;10.010;2023-12-29T11:35:23;10.05;;;5.60;;
20443;SDS011;10381;53.730;10.010;2023-12-29T11:39:30;5.68;;;4.95;;
20443;SDS011;10381;53.730;10.010;2023-12-29T11:43:40;6.40;;;5.03;;
20443;SDS011;10381;53.730;10.010;2023-12-29T11:47:40;9.95;;;4.75;;
20443;SDS011;10381;53.730;10.010;2023-12-29T11:51:41;12.75;;;5.63;;
20443;SDS011;10381;53.730;10.010;2023-12-29T11:55:43;15.68;;;5.53;;
20443;SDS011;10381;53.730;10.010;2023-12-29T11:59:47;11.57;;;5.18;;
20443;SDS011;10381;53.730;10.010;2023-12-29T12:03:49;14.35;;;4.95;;
20443;SDS011;10381;53.730;10.010;2023-12-29T12:07:56;13.85;;;4.93;;
20443;SDS011;10381;53.730;10.010;2023-12-29T12:11:57;11.05;;;5.07;;
20443;SDS011;10381;53.730;10.010;2023-12-29T12:15:57;17.60;;;4.85;;
20443;SDS011;10381;53.730;10.010;2023-12-29T12:20:02;14.57;;;4.63;;
20443;SDS011;10381;53.730;10.010;2023-12-29T12:24:06;20.63;;;4.57;;
20443;SDS011;10381;53.730;10.010;2023-12-29T12:28:08;8.07;;;4.80;;
20443;SDS011;10381;53.730;10.010;2023-12-29T12:32:09;23.67;;;5.03;;
20443;SDS011;10381;53.730;10.010;2023-12-29T12:36:09;8.73;;;3.92;;
20443;SDS011;10381;53.730;10.010;2023-12-29T12:40:10;8.07;;;5.23;;
20443;SDS011;10381;53.730;10.010;2023-12-29T12:44:13;6.35;;;4.22;;
20443;SDS011;10381;53.730;10.010;2023-12-29T12:48:18;7.65;;;4.22;;
20443;SDS011;10381;53.730;10.010;2023-12-29T12:52:19;7.50;;;4.80;;
20443;SDS011;10381;53.730;10.010;2023-12-29T12:56:19;11.55;;;4.68;;
20443;SDS011;10381;53.730;10.010;2023-12-29T13:00:20;7.28;;;4.22;;
20443;SDS011;10381;53.730;10.010;2023-12-29T13:04:20;21.80;;;5.33;;
20443;SDS011;10381;53.730;10.010;2023-12-29T13:08:20;7.85;;;5.13;;
20443;SDS011;10381;53.730;10.010;2023-12-29T13:12:21;7.15;;;4.85;;
20443;SDS011;10381;53.730;10.010;2023-12-29T13:16:31;9.07;;;4.43;;
20443;SDS011;10381;53.730;10.010;2023-12-29T13:20:42;8.63;;;5.10;;
20443;SDS011;10381;53.730;10.010;2023-12-29T13:24:49;18.80;;;4.82;;
20443;SDS011;10381;53.730;10.010;2023-12-29T13:28:50;15.68;;;4.82;;
20443;SDS011;10381;53.730;10.010;2023-12-29T13:32:50;11.45;;;5.07;;
20443;SDS011;10381;53.730;10.010;2023-12-29T13:36:51;16.30;;;6.93;;
20443;SDS011;10381;53.730;10.010;2023-12-29T13:41:02;14.95;;;8.07;;
20443;SDS011;10381;53.730;10.010;2023-12-29T13:45:08;18.17;;;6.55;;
20443;SDS011;10381;53.730;10.010;2023-12-29T13:49:09;13.75;;;7.00;;
20443;SDS011;10381;53.730;10.010;2023-12-29T13:53:15;11.63;;;7.68;;
20443;SDS011;10381;53.730;10.010;2023-12-29T13:57:16;16.85;;;8.90;;
20443;SDS011;10381;53.730;10.010;2023-12-29T14:01:17;12.32;;;9.27;;
20443;SDS011;10381;53.730;10.010;2023-12-29T14:05:18;11.57;;;9.43;;
20443;SDS011;10381;53.730;10.010;2023-12-29T14:09:22;10.48;;;8.15;;
20443;SDS011;10381;53.730;10.010;2023-12-29T14:13:23;15.90;;;9.45;;
20443;SDS011;10381;53.730;10.010;2023-12-29T14:17:24;15.18;;;9.15;;
20443;SDS011;10381;53.730;10.010;2023-12-29T14:21:28;15.30;;;9.43;;
20443;SDS011;10381;53.730;10.010;2023-12-29T14:25:31;10.50;;;9.30;;
20443;SDS011;10381;53.730;10.010;2023-12-29T14:29:40;12.07;;;10.07;;
20443;SDS011;10381;53.730;10.010;2023-12-29T14:33:41;17.98;;;8.93;;
20443;SDS011;10381;53.730;10.010;2023-12-29T14:37:43;19.70;;;9.20;;
20443;SDS011;10381;53.730;10.010;2023-12-29T14:41:43;23.02;;;8.55;;
20443;SDS011;10381;53.730;10.010;2023-12-29T14:45:45;15.50;;;8.23;;
20443;SDS011;10381;53.730;10.010;2023-12-29T14:49:45;10.83;;;8.20;;
20443;SDS011;10381;53.730;10.010;2023-12-29T14:53:46;24.20;;;9.30;;
20443;SDS011;10381;53.730;10.010;2023-12-29T14:57:47;20.80;;;10.70;;
20443;SDS011;10381;53.730;10.010;2023-12-29T15:01:48;16.57;;;9.57;;
20443;SDS011;10381;53.730;10.010;2023-12-29T15:05:48;10.87;;;7.77;;
20443;SDS011;10381;53.730;10.010;2023-12-29T15:09:48;15.57;;;8.30;;
20443;SDS011;10381;53.730;10.010;2023-12-29T15:13:48;8.43;;;7.63;;
20443;SDS011;10381;53.730;10.010;2023-12-29T15:17:49;13.67;;;8.47;;
20443;SDS011;10381;53.730;10.010;2023-12-29T15:21:49;9.53;;;7.90;;
20443;SDS011;10381;53.730;10.010;2023-12-29T15:25:53;18.80;;;9.65;;
20443;SDS011;10381;53.730;10.010;2023-12-29T15:29:54;28.35;;;9.35;;
20443;SDS011;10381;53.730;10.010;2023-12-29T15:33:54;11.90;;;9.43;;
20443;SDS011;10381;53.730;10.010;2023-12-29T15:37:55;27.40;;;10.38;;
20443;SDS011;10381;53.730;10.010;2023-12-29T15:41:55;19.40;;;9.30;;
20443;SDS011;10381;53.730;10.010;2023-12-29T15:45:56;11.67;;;9.10;;
20443;SDS011;10381;53.730;10.010;2023-12-29T15:49:56;11.65;;;8.40;;
20443;SDS011;10381;53.730;10.010;2023-12-29T15:53:56;17.03;;;8.43;;
20443;SDS011;10381;53.730;10.010;2023-12-29T15:57:56;12.27;;;10.23;;
20443;SDS011;10381;53.730;10.010;2023-12-29T16:01:57;10.70;;;8.93;;
20443;SDS011;10381;53.730;10.010;2023-12-29T16:05:58;13.83;;;9.67;;
20443;SDS011;10381;53.730;10.010;2023-12-29T16:10:01;14.35;;;9.85;;
20443;SDS011;10381;53.730;10.010;2023-12-29T16:14:01;13.10;;;9.60;;
20443;SDS011;10381;53.730;10.010;2023-12-29T16:18:01;16.25;;;9.70;;
20443;SDS011;10381;53.730;10.010;2023-12-29T16:22:02;11.20;;;9.90;;
20443;SDS011;10381;53.730;10.010;2023-12-29T16:26:08;18.77;;;11.13;;
20443;SDS011;10381;53.730;10.010;2023-12-29T16:30:09;16.42;;;11.23;;
20443;SDS011;10381;53.730;10.010;2023-12-29T16:34:10;28.50;;;10.73;;
20443;SDS011;10381;53.730;10.010;2023-12-29T16:38:10;16.17;;;9.98;;
20443;SDS011;10381;53.730;10.010;2023-12-29T16:42:11;19.75;;;10.45;;
20443;SDS011;10381;53.730;10.010;2023-12-29T16:46:15;13.90;;;11.77;;
20443;SDS011;10381;53.730;10.010;2023-12-29T16:50:16;22.63;;;11.00;;
20443;SDS011;10381;53.730;10.010;2023-12-29T16:54:16;18.70;;;9.90;;
20443;SDS011;10381;53.730;10.010;2023-12-29T16:58:17;11.67;;;9.80;;
20443;SDS011;10381;53.730;10.010;2023-12-29T17:02:19;22.98;;;10.75;;
20443;SDS011;10381;53.730;10.010;2023-12-29T17:06:20;10.40;;;9.33;;
20443;SDS011;10381;53.730;10.010;2023-12-29T17:10:20;12.38;;;10.20;;
20443;SDS011;10381;53.730;10.010;2023-12-29T17:14:21;17.07;;;9.53;;
20443;SDS011;10381;53.730;10.010;2023-12-29T17:18:21;20.92;;;9.40;;
20443;SDS011;10381;53.730;10.010;2023-12-29T17:22:21;17.80;;;9.50;;
20443;SDS011;10381;53.730;10.010;2023-12-29T17:26:22;14.23;;;9.63;;
20443;SDS011;10381;53.730;10.010;2023-12-29T17:30:22;17.73;;;10.02;;
20443;SDS011;10381;53.730;10.010;2023-12-29T17:34:22;26.20;;;9.87;;
20443;SDS011;10381;53.730;10.010;2023-12-29T17:38:23;14.43;;;8.63;;
20443;SDS011;10381;53.730;10.010;2023-12-29T17:42:23;17.47;;;9.33;;
20443;SDS011;10381;53.730;10.010;2023-12-29T17:46:23;11.23;;;9.02;;
20443;SDS011;10381;53.730;10.010;2023-12-29T17:50:24;11.40;;;8.98;;
20443;SDS011;10381;53.730;10.010;2023-12-29T17:54:24;11.40;;;8.70;;
20443;SDS011;10381;53.730;10.010;2023-12-29T17:58:25;19.02;;;8.85;;
20443;SDS011;10381;53.730;10.010;2023-12-29T18:02:25;12.50;;;9.47;;
20443;SDS011;10381;53.730;10.010;2023-12-29T18:06:31;16.45;;;8.63;;
20443;SDS011;10381;53.730;10.010;2023-12-29T18:10:32;10.50;;;9.13;;
20443;SDS011;10381;53.730;10.010;2023-12-29T18:14:37;10.77;;;9.20;;
20443;SDS011;10381;53.730;10.010;2023-12-29T18:18:44;11.88;;;9.43;;
20443;SDS011;10381;53.730;10.010;2023-12-29T18:22:45;11.82;;;8.80;;
20443;SDS011;10381;53.730;10.010;2023-12-29T18:26:45;16.30;;;9.37;;
20443;SDS011;10381;53.730;10.010;2023-12-29T18:30:45;11.57;;;8.67;;
20443;SDS011;10381;53.730;10.010;2023-12-29T18:34:46;18.33;;;8.70;;
20443;SDS011;10381;53.730;10.010;2023-12-29T18:38:46;13.43;;;8.67;;
20443;SDS011;10381;53.730;10.010;2023-12-29T18:42:46;8.53;;;7.80;;
20443;SDS011;10381;53.730;10.010;2023-12-29T18:46:46;9.13;;;8.30;;
20443;SDS011;10381;53.730;10.010;2023-12-29T18:50:47;17.53;;;8.77;;
20443;SDS011;10381;53.730;10.010;2023-12-29T18:54:50;19.27;;;8.13;;
20443;SDS011;10381;53.730;10.010;2023-12-29T18:58:50;18.92;;;9.02;;
20443;SDS011;10381;53.730;10.010;2023-12-29T19:02:50;18.52;;;9.52;;
20443;SDS011;10381;53.730;10.010;2023-12-29T19:06:51;35.42;;;9.07;;
20443;SDS011;10381;53.730;10.010;2023-12-29T19:10:51;10.57;;;7.83;;
20443;SDS011;10381;53.730;10.010;2023-12-29T19:14:51;17.77;;;8.50;;
20443;SDS011;10381;53.730;10.010;2023-12-29T19:18:54;13.48;;;9.15;;
20443;SDS011;10381;53.730;10.010;2023-12-29T19:22:55;14.32;;;8.82;;
20443;SDS011;10381;53.730;10.010;2023-12-29T19:26:55;28.60;;;8.63;;
20443;SDS011;10381;53.730;10.010;2023-12-29T19:30:55;9.35;;;7.57;;
20443;SDS011;10381;53.730;10.010;2023-12-29T19:34:55;14.67;;;8.00;;
20443;SDS011;10381;53.730;10.010;2023-12-29T19:38:56;21.93;;;8.80;;
20443;SDS011;10381;53.730;10.010;2023-12-29T19:42:56;15.87;;;8.93;;
20443;SDS011;10381;53.730;10.010;2023-12-29T19:46:56;13.87;;;8.10;;
20443;SDS011;10381;53.730;10.010;2023-12-29T19:50:57;14.07;;;9.07;;
20443;SDS011;10381;53.730;10.010;2023-12-29T19:55:00;14.63;;;9.40;;
20443;SDS011;10381;53.730;10.010;2023-12-29T19:59:01;7.80;;;7.00;;
20443;SDS011;10381;53.730;10.010;2023-12-29T20:03:01;12.10;;;6.97;;
20443;SDS011;10381;53.730;10.010;2023-12-29T20:07:01;19.05;;;6.63;;
20443;SDS011;10381;53.730;10.010;2023-12-29T20:11:03;23.50;;;8.02;;
20443;SDS011;10381;53.730;10.010;2023-12-29T20:15:04;8.23;;;6.75;;
20443;SDS011;10381;53.730;10.010;2023-12-29T20:19:04;12.50;;;6.75;;
20443;SDS011;10381;53.730;10.010;2023-12-29T20:23:05;14.55;;;8.05;;
20443;SDS011;10381;53.730;10.010;2023-12-29T20:27:05;7.90;;;6.97;;
20443;SDS011;10381;53.730;10.010;2023-12-29T20:31:06;20.10;;;8.27;;
20443;SDS011;10381;53.730;10.010;2023-12-29T20:35:06;10.27;;;7.13;;
20443;SDS011;10381;53.730;10.010;2023-12-29T20:39:07;9.52;;;7.55;;
20443;SDS011;10381;53.730;10.010;2023-12-29T20:43:09;15.68;;;8.60;;
20443;SDS011;10381;53.730;10.010;2023-12-29T20:47:09;17.07;;;7.50;;
20443;SDS011;10381;53.730;10.010;2023-12-29T20:51:09;27.20;;;9.47;;
20443;SDS011;10381;53.730;10.010;2023-12-29T20:55:13;11.00;;;8.25;;
20443;SDS011;10381;53.730;10.010;2023-12-29T20:59:13;8.80;;;8.10;;
20443;SDS011;10381;53.730;10.010;2023-12-29T21:03:15;11.45;;;7.88;;
20443;SDS011;10381;53.730;10.010;2023-12-29T21:07:15;15.03;;;8.23;;
20443;SDS011;10381;53.730;10.010;2023-12-29T21:11:16;10.57;;;7.43;;
20443;SDS011;10381;53.730;10.010;2023-12-29T21:15:17;30.50;;;8.10;;
20443;SDS011;10381;53.730;10.010;2023-12-29T21:19:17;19.67;;;7.35;;
20443;SDS011;10381;53.730;10.010;2023-12-29T21:23:18;15.85;;;8.05;;
20443;SDS011;10381;53.730;10.010;2023-12-29T21:27:21;13.45;;;7.00;;
20443;SDS011;10381;53.730;10.010;2023-12-29T21:31:21;8.57;;;5.93;;
20443;SDS011;10381;53.730;10.010;2023-12-29T21:35:22;9.82;;;5.78;;
20443;SDS011;10381;53.730;10.010;2023-12-29T21:39:22;8.25;;;5.57;;
20443;SDS011;10381;53.730;10.010;2023-12-29T21:43:23;11.90;;;8.57;;
20443;SDS011;10381;53.730;10.010;2023-12-29T21:47:23;10.37;;;5.67;;
20443;SDS011;10381;53.730;10.010;2023-12-29T21:51:23;7.32;;;6.65;;
20443;SDS011;10381;53.730;10.010;2023-12-29T21:55:26;8.07;;;6.93;;
20443;SDS011;10381;53.730;10.010;2023-12-29T21:59:27;8.52;;;7.20;;
20443;SDS011;10381;53.730;10.010;2023-12-29T22:03:27;16.07;;;6.83;;
20443;SDS011;10381;53.730;10.010;2023-12-29T22:07:27;9.40;;;6.03;;
20443;SDS011;10381;53.730;10.010;2023-12-29T22:11:28;7.03;;;6.32;;
20443;SDS011;10381;53.730;10.010;2023-12-29T22:15:28;5.80;;;5.40;;
20443;SDS011;10381;53.730;10.010;2023-12-29T22:19:28;5.70;;;5.30;;
20443;SDS011;10381;53.730;10.010;2023-12-29T22:23:29;5.53;;;5.23;;
20443;SDS011;10381;53.730;10.010;2023-12-29T22:27:29;5.82;;;5.18;;
20443;SDS011;10381;53.730;10.010;2023-12-29T22:31:30;5.82;;;5.40;;
20443;SDS011;10381;53.730;10.010;2023-12-29T22:35:30;6.17;;;5.50;;
20443;SDS011;10381;53.730;10.010;2023-12-29T22:39:30;6.83;;;5.30;;
20443;SDS011;10381;53.730;10.010;2023-12-29T22:43:30;5.00;;;4.70;;
20443;SDS011;10381;53.730;10.010;2023-12-29T22:47:30;6.20;;;5.17;;
20443;SDS011;10381;53.730;10.010;2023-12-29T22:51:31;14.17;;;5.07;;
20443;SDS011;10381;53.730;10.010;2023-12-29T22:55:31;11.67;;;5.37;;
20443;SDS011;10381;53.730;10.010;2023-12-29T22:59:31;4.80;;;4.50;;
20443;SDS011;10381;53.730;10.010;2023-12-29T23:03:33;5.18;;;4.88;;
20443;SDS011;10381;53.730;10.010;2023-12-29T23:07:33;5.40;;;4.90;;
20443;SDS011;10381;53.730;10.010;2023-12-29T23:11:34;5.33;;;4.93;;
20443;SDS011;10381;53.730;10.010;2023-12-29T23:15:34;4.90;;;4.60;;
20443;SDS011;10381;53.730;10.010;2023-12-29T23:19:34;5.22;;;4.45;;
20443;SDS011;10381;53.730;10.010;2023-12-29T23:23:35;6.60;;;4.80;;
20443;SDS011;10381;53.730;10.010;2023-12-29T23:27:35;5.03;;;4.63;;
20443;SDS011;10381;53.730;10.010;2023-12-29T23:31:36;5.30;;;4.80;;
20443;SDS011;10381;53.730;10.010;2023-12-29T23:35:36;11.07;;;4.87;;
20443;SDS011;10381;53.730;10.010;2023-12-29T23:39:37;4.82;;;4.43;;